sensor_id;sensor_type;location;lat;lon;timestamp;P1;durP1;ratioP1;P2;durP2;ratioP2
56893;SDS011;43392;50.078;13.704;2023-12-04T00:01:20;29.03;;;13.20;;
56893;SDS011;43392;50.078;13.704;2023-12-04T00:03:49;26.17;;;12.97;;
56893;SDS011;43392;50.078;13.704;2023-12-04T00:06:15;23.03;;;11.90;;
56893;SDS011;43392;50.078;13.704;2023-12-04T00:08:42;28.03;;;13.40;;
56893;SDS011;43392;50.078;13.704;2023-12-04T00:11:09;29.20;;;13.37;;
56893;SDS011;43392;50.078;13.704;2023-12-04T00:13:35;27.87;;;13.53;;
56893;SDS011;43392;50.078;13.704;2023-12-04T00:16:02;27.60;;;12.97;;
56893;SDS011;43392;50.078;13.704;2023-12-04T00:18:29;30.70;;;13.87;;
56893;SDS011;43392;50.078;13.704;2023-12-04T00:20:57;28.67;;;12.93;;
56893;SDS011;43392;50.078;13.704;2023-12-04T00:23:24;29.10;;;13.20;;
56893;SDS011;43392;50.078;13.704;2023-12-04T00:25:50;28.90;;;13.17;;
56893;SDS011;43392;50.078;13.704;2023-12-04T00:28:17;26.57;;;12.47;;
56893;SDS011;43392;50.078;13.704;2023-12-04T00:30:46;26.13;;;13.20;;
56893;SDS011;43392;50.078;13.704;2023-12-04T00:33:13;28.23;;;13.10;;
56893;SDS011;43392;50.078;13.704;2023-12-04T00:35:40;26.43;;;13.73;;
56893;SDS011;43392;50.078;13.704;2023-12-04T00:38:08;29.70;;;13.17;;
56893;SDS011;43392;50.078;13.704;2023-12-04T00:40:34;28.87;;;13.13;;
56893;SDS011;43392;50.078;13.704;2023-12-04T00:43:01;26.40;;;12.40;;
56893;SDS011;43392;50.078;13.704;2023-12-04T00:45:27;26.57;;;13.43;;
56893;SDS011;43392;50.078;13.704;2023-12-04T00:47:54;29.70;;;13.33;;
56893;SDS011;43392;50.078;13.704;2023-12-04T00:50:21;29.53;;;13.60;;
56893;SDS011;43392;50.078;13.704;2023-12-04T00:52:48;27.97;;;13.57;;
56893;SDS011;43392;50.078;13.704;2023-12-04T00:55:16;29.63;;;13.57;;
56893;SDS011;43392;50.078;13.704;2023-12-04T00:57:42;28.83;;;13.83;;
56893;SDS011;43392;50.078;13.704;2023-12-04T01:00:09;30.60;;;15.60;;
56893;SDS011;43392;50.078;13.704;2023-12-04T01:02:37;25.17;;;12.80;;
56893;SDS011;43392;50.078;13.704;2023-12-04T01:05:03;29.33;;;14.37;;
56893;SDS011;43392;50.078;13.704;2023-12-04T01:07:30;23.37;;;11.97;;
56893;SDS011;43392;50.078;13.704;2023-12-04T01:09:57;24.43;;;11.70;;
56893;SDS011;43392;50.078;13.704;2023-12-04T01:12:25;24.60;;;12.07;;
56893;SDS011;43392;50.078;13.704;2023-12-04T01:14:51;26.93;;;12.90;;
56893;SDS011;43392;50.078;13.704;2023-12-04T01:17:18;30.00;;;13.87;;
56893;SDS011;43392;50.078;13.704;2023-12-04T01:19:44;26.60;;;13.23;;
56893;SDS011;43392;50.078;13.704;2023-12-04T01:22:11;25.07;;;12.23;;
56893;SDS011;43392;50.078;13.704;2023-12-04T01:24:38;28.37;;;13.43;;
56893;SDS011;43392;50.078;13.704;2023-12-04T01:27:04;30.80;;;13.43;;
56893;SDS011;43392;50.078;13.704;2023-12-04T01:29:32;137.80;;;51.00;;
56893;SDS011;43392;50.078;13.704;2023-12-04T01:31:59;44.43;;;18.93;;
56893;SDS011;43392;50.078;13.704;2023-12-04T01:34:25;34.63;;;16.50;;
56893;SDS011;43392;50.078;13.704;2023-12-04T01:36:52;32.83;;;16.03;;
56893;SDS011;43392;50.078;13.704;2023-12-04T01:39:19;30.23;;;15.20;;
56893;SDS011;43392;50.078;13.704;2023-12-04T01:41:45;32.30;;;15.83;;
56893;SDS011;43392;50.078;13.704;2023-12-04T01:44:12;29.10;;;14.27;;
56893;SDS011;43392;50.078;13.704;2023-12-04T01:46:40;33.67;;;16.33;;
56893;SDS011;43392;50.078;13.704;2023-12-04T01:49:08;33.43;;;16.73;;
56893;SDS011;43392;50.078;13.704;2023-12-04T01:51:34;32.83;;;15.80;;
56893;SDS011;43392;50.078;13.704;2023-12-04T01:54:02;41.77;;;20.53;;
56893;SDS011;43392;50.078;13.704;2023-12-04T01:56:30;41.50;;;20.77;;
56893;SDS011;43392;50.078;13.704;2023-12-04T01:58:57;41.47;;;19.27;;
56893;SDS011;43392;50.078;13.704;2023-12-04T02:01:24;29.20;;;14.87;;
56893;SDS011;43392;50.078;13.704;2023-12-04T02:03:55;27.90;;;14.00;;
56893;SDS011;43392;50.078;13.704;2023-12-04T02:06:25;25.17;;;12.63;;
56893;SDS011;43392;50.078;13.704;2023-12-04T02:08:52;31.27;;;14.40;;
56893;SDS011;43392;50.078;13.704;2023-12-04T02:11:19;28.60;;;14.73;;
56893;SDS011;43392;50.078;13.704;2023-12-04T02:13:45;29.83;;;13.70;;
56893;SDS011;43392;50.078;13.704;2023-12-04T02:16:12;26.73;;;12.97;;
56893;SDS011;43392;50.078;13.704;2023-12-04T02:18:43;29.77;;;14.13;;
56893;SDS011;43392;50.078;13.704;2023-12-04T02:21:12;30.30;;;14.63;;
56893;SDS011;43392;50.078;13.704;2023-12-04T02:23:38;27.23;;;13.67;;
56893;SDS011;43392;50.078;13.704;2023-12-04T02:26:09;26.30;;;13.83;;
56893;SDS011;43392;50.078;13.704;2023-12-04T02:28:38;29.53;;;14.50;;
56893;SDS011;43392;50.078;13.704;2023-12-04T02:31:06;30.03;;;14.77;;
56893;SDS011;43392;50.078;13.704;2023-12-04T02:33:34;26.77;;;14.17;;
56893;SDS011;43392;50.078;13.704;2023-12-04T02:36:02;31.20;;;14.13;;
56893;SDS011;43392;50.078;13.704;2023-12-04T02:38:31;30.63;;;15.17;;
56893;SDS011;43392;50.078;13.704;2023-12-04T02:40:58;31.67;;;16.33;;
56893;SDS011;43392;50.078;13.704;2023-12-04T02:43:26;29.60;;;14.03;;
56893;SDS011;43392;50.078;13.704;2023-12-04T02:45:53;26.67;;;13.57;;
56893;SDS011;43392;50.078;13.704;2023-12-04T02:48:19;32.50;;;15.47;;
56893;SDS011;43392;50.078;13.704;2023-12-04T02:50:46;36.90;;;17.33;;
56893;SDS011;43392;50.078;13.704;2023-12-04T02:53:13;31.93;;;16.03;;
56893;SDS011;43392;50.078;13.704;2023-12-04T02:55:39;35.03;;;18.17;;
56893;SDS011;43392;50.078;13.704;2023-12-04T02:58:06;30.60;;;14.93;;
56893;SDS011;43392;50.078;13.704;2023-12-04T03:00:34;30.20;;;14.63;;
56893;SDS011;43392;50.078;13.704;2023-12-04T03:03:00;30.93;;;14.10;;
56893;SDS011;43392;50.078;13.704;2023-12-04T03:05:27;30.07;;;15.13;;
56893;SDS011;43392;50.078;13.704;2023-12-04T03:07:54;29.57;;;14.00;;
56893;SDS011;43392;50.078;13.704;2023-12-04T03:10:20;25.50;;;12.40;;
56893;SDS011;43392;50.078;13.704;2023-12-04T03:12:47;28.90;;;13.60;;
56893;SDS011;43392;50.078;13.704;2023-12-04T03:15:13;27.77;;;14.17;;
56893;SDS011;43392;50.078;13.704;2023-12-04T03:17:41;27.17;;;13.17;;
56893;SDS011;43392;50.078;13.704;2023-12-04T03:20:09;31.30;;;14.10;;
56893;SDS011;43392;50.078;13.704;2023-12-04T03:22:36;32.33;;;14.30;;
56893;SDS011;43392;50.078;13.704;2023-12-04T03:25:03;30.70;;;14.17;;
56893;SDS011;43392;50.078;13.704;2023-12-04T03:27:31;33.27;;;14.10;;
56893;SDS011;43392;50.078;13.704;2023-12-04T03:29:58;25.07;;;12.53;;
56893;SDS011;43392;50.078;13.704;2023-12-04T03:32:24;25.63;;;12.37;;
56893;SDS011;43392;50.078;13.704;2023-12-04T03:34:52;26.33;;;13.10;;
56893;SDS011;43392;50.078;13.704;2023-12-04T03:37:19;33.00;;;15.67;;
56893;SDS011;43392;50.078;13.704;2023-12-04T03:39:45;30.07;;;13.73;;
56893;SDS011;43392;50.078;13.704;2023-12-04T03:42:12;30.33;;;13.87;;
56893;SDS011;43392;50.078;13.704;2023-12-04T03:44:39;31.23;;;13.93;;
56893;SDS011;43392;50.078;13.704;2023-12-04T03:47:05;25.43;;;12.33;;
56893;SDS011;43392;50.078;13.704;2023-12-04T03:49:32;25.30;;;11.80;;
56893;SDS011;43392;50.078;13.704;2023-12-04T03:52:00;27.03;;;12.13;;
56893;SDS011;43392;50.078;13.704;2023-12-04T03:54:26;26.97;;;12.43;;
56893;SDS011;43392;50.078;13.704;2023-12-04T03:56:53;26.73;;;12.20;;
56893;SDS011;43392;50.078;13.704;2023-12-04T03:59:20;25.63;;;11.67;;
56893;SDS011;43392;50.078;13.704;2023-12-04T04:01:46;26.57;;;13.10;;
56893;SDS011;43392;50.078;13.704;2023-12-04T04:04:13;29.80;;;13.90;;
56893;SDS011;43392;50.078;13.704;2023-12-04T04:06:39;28.30;;;12.70;;
56893;SDS011;43392;50.078;13.704;2023-12-04T04:09:07;25.23;;;13.43;;
56893;SDS011;43392;50.078;13.704;2023-12-04T04:11:34;28.57;;;12.80;;
56893;SDS011;43392;50.078;13.704;2023-12-04T04:14:01;25.60;;;12.47;;
56893;SDS011;43392;50.078;13.704;2023-12-04T04:16:28;27.43;;;13.43;;
56893;SDS011;43392;50.078;13.704;2023-12-04T04:18:54;24.43;;;12.47;;
56893;SDS011;43392;50.078;13.704;2023-12-04T04:21:21;28.00;;;13.90;;
56893;SDS011;43392;50.078;13.704;2023-12-04T04:23:48;33.33;;;15.67;;
56893;SDS011;43392;50.078;13.704;2023-12-04T04:26:15;39.23;;;18.03;;
56893;SDS011;43392;50.078;13.704;2023-12-04T04:28:42;41.27;;;19.97;;
56893;SDS011;43392;50.078;13.704;2023-12-04T04:31:09;40.33;;;19.43;;
56893;SDS011;43392;50.078;13.704;2023-12-04T04:33:36;30.20;;;14.63;;
56893;SDS011;43392;50.078;13.704;2023-12-04T04:36:02;30.20;;;13.93;;
56893;SDS011;43392;50.078;13.704;2023-12-04T04:38:29;28.57;;;12.47;;
56893;SDS011;43392;50.078;13.704;2023-12-04T04:40:56;24.17;;;11.83;;
56893;SDS011;43392;50.078;13.704;2023-12-04T04:43:24;27.63;;;13.53;;
56893;SDS011;43392;50.078;13.704;2023-12-04T04:45:51;26.23;;;13.40;;
56893;SDS011;43392;50.078;13.704;2023-12-04T04:48:17;29.97;;;15.10;;
56893;SDS011;43392;50.078;13.704;2023-12-04T04:50:44;28.70;;;14.60;;
56893;SDS011;43392;50.078;13.704;2023-12-04T04:53:11;27.30;;;14.50;;
56893;SDS011;43392;50.078;13.704;2023-12-04T04:55:38;25.13;;;12.90;;
56893;SDS011;43392;50.078;13.704;2023-12-04T04:58:04;25.87;;;12.40;;
56893;SDS011;43392;50.078;13.704;2023-12-04T05:00:32;26.17;;;13.30;;
56893;SDS011;43392;50.078;13.704;2023-12-04T05:02:59;26.83;;;11.87;;
56893;SDS011;43392;50.078;13.704;2023-12-04T05:05:26;26.10;;;12.10;;
56893;SDS011;43392;50.078;13.704;2023-12-04T05:07:52;22.63;;;11.33;;
56893;SDS011;43392;50.078;13.704;2023-12-04T05:10:19;24.33;;;11.50;;
56893;SDS011;43392;50.078;13.704;2023-12-04T05:12:45;24.70;;;13.00;;
56893;SDS011;43392;50.078;13.704;2023-12-04T05:15:12;27.43;;;14.07;;
56893;SDS011;43392;50.078;13.704;2023-12-04T05:17:40;27.93;;;14.17;;
56893;SDS011;43392;50.078;13.704;2023-12-04T05:20:07;27.23;;;13.20;;
56893;SDS011;43392;50.078;13.704;2023-12-04T05:22:35;27.07;;;12.47;;
56893;SDS011;43392;50.078;13.704;2023-12-04T05:25:01;27.57;;;14.23;;
56893;SDS011;43392;50.078;13.704;2023-12-04T05:27:28;24.80;;;13.20;;
56893;SDS011;43392;50.078;13.704;2023-12-04T05:29:55;30.07;;;14.27;;
56893;SDS011;43392;50.078;13.704;2023-12-04T05:32:21;25.17;;;13.03;;
56893;SDS011;43392;50.078;13.704;2023-12-04T05:34:49;25.13;;;12.80;;
56893;SDS011;43392;50.078;13.704;2023-12-04T05:37:16;31.33;;;15.50;;
56893;SDS011;43392;50.078;13.704;2023-12-04T05:39:42;30.67;;;16.60;;
56893;SDS011;43392;50.078;13.704;2023-12-04T05:42:09;31.97;;;17.77;;
56893;SDS011;43392;50.078;13.704;2023-12-04T05:44:36;29.03;;;16.80;;
56893;SDS011;43392;50.078;13.704;2023-12-04T05:47:02;30.00;;;16.40;;
56893;SDS011;43392;50.078;13.704;2023-12-04T05:49:29;25.77;;;15.00;;
56893;SDS011;43392;50.078;13.704;2023-12-04T05:51:57;37.10;;;21.67;;
56893;SDS011;43392;50.078;13.704;2023-12-04T05:54:24;32.93;;;18.33;;
56893;SDS011;43392;50.078;13.704;2023-12-04T05:56:50;35.70;;;19.40;;
56893;SDS011;43392;50.078;13.704;2023-12-04T05:59:17;40.30;;;19.93;;
56893;SDS011;43392;50.078;13.704;2023-12-04T06:01:44;41.23;;;19.23;;
56893;SDS011;43392;50.078;13.704;2023-12-04T06:04:10;37.80;;;18.90;;
56893;SDS011;43392;50.078;13.704;2023-12-04T06:06:37;41.27;;;20.43;;
56893;SDS011;43392;50.078;13.704;2023-12-04T06:09:05;54.90;;;22.87;;
56893;SDS011;43392;50.078;13.704;2023-12-04T06:11:31;54.37;;;24.77;;
56893;SDS011;43392;50.078;13.704;2023-12-04T06:13:58;67.20;;;28.17;;
56893;SDS011;43392;50.078;13.704;2023-12-04T06:16:24;62.30;;;26.67;;
56893;SDS011;43392;50.078;13.704;2023-12-04T06:18:50;68.10;;;29.43;;
56893;SDS011;43392;50.078;13.704;2023-12-04T06:21:17;64.77;;;28.97;;
56893;SDS011;43392;50.078;13.704;2023-12-04T06:23:44;76.90;;;32.53;;
56893;SDS011;43392;50.078;13.704;2023-12-04T06:26:13;85.17;;;34.97;;
56893;SDS011;43392;50.078;13.704;2023-12-04T06:28:40;81.93;;;33.67;;
56893;SDS011;43392;50.078;13.704;2023-12-04T06:31:08;57.37;;;25.47;;
56893;SDS011;43392;50.078;13.704;2023-12-04T06:33:36;74.40;;;32.40;;
56893;SDS011;43392;50.078;13.704;2023-12-04T06:36:03;71.30;;;28.73;;
56893;SDS011;43392;50.078;13.704;2023-12-04T06:38:32;59.20;;;29.03;;
56893;SDS011;43392;50.078;13.704;2023-12-04T06:41:00;50.97;;;24.57;;
56893;SDS011;43392;50.078;13.704;2023-12-04T06:43:28;45.77;;;22.73;;
56893;SDS011;43392;50.078;13.704;2023-12-04T06:45:56;55.40;;;24.83;;
56893;SDS011;43392;50.078;13.704;2023-12-04T06:48:24;49.73;;;23.13;;
56893;SDS011;43392;50.078;13.704;2023-12-04T06:50:51;46.30;;;22.03;;
56893;SDS011;43392;50.078;13.704;2023-12-04T06:53:18;54.10;;;26.83;;
56893;SDS011;43392;50.078;13.704;2023-12-04T06:55:44;56.97;;;27.63;;
56893;SDS011;43392;50.078;13.704;2023-12-04T06:58:11;69.00;;;29.90;;
56893;SDS011;43392;50.078;13.704;2023-12-04T07:00:39;58.17;;;24.57;;
56893;SDS011;43392;50.078;13.704;2023-12-04T07:03:06;48.30;;;22.63;;
56893;SDS011;43392;50.078;13.704;2023-12-04T07:05:32;59.63;;;27.77;;
56893;SDS011;43392;50.078;13.704;2023-12-04T07:07:59;63.73;;;28.60;;
56893;SDS011;43392;50.078;13.704;2023-12-04T07:10:26;77.00;;;33.07;;
56893;SDS011;43392;50.078;13.704;2023-12-04T07:12:52;54.57;;;24.10;;
56893;SDS011;43392;50.078;13.704;2023-12-04T07:15:19;43.50;;;20.80;;
56893;SDS011;43392;50.078;13.704;2023-12-04T07:17:47;57.20;;;28.97;;
56893;SDS011;43392;50.078;13.704;2023-12-04T07:20:13;68.93;;;37.20;;
56893;SDS011;43392;50.078;13.704;2023-12-04T07:22:40;149.77;;;81.20;;
56893;SDS011;43392;50.078;13.704;2023-12-04T07:25:07;94.60;;;52.60;;
56893;SDS011;43392;50.078;13.704;2023-12-04T07:27:34;74.77;;;20.30;;
56893;SDS011;43392;50.078;13.704;2023-12-04T07:30:02;39.73;;;15.90;;
56893;SDS011;43392;50.078;13.704;2023-12-04T07:32:29;54.77;;;22.97;;
56893;SDS011;43392;50.078;13.704;2023-12-04T07:34:59;71.17;;;25.63;;
56893;SDS011;43392;50.078;13.704;2023-12-04T07:37:26;204.60;;;28.30;;
56893;SDS011;43392;50.078;13.704;2023-12-04T07:39:55;200.83;;;30.07;;
56893;SDS011;43392;50.078;13.704;2023-12-04T07:42:21;253.60;;;28.03;;
56893;SDS011;43392;50.078;13.704;2023-12-04T07:44:48;154.07;;;23.17;;
56893;SDS011;43392;50.078;13.704;2023-12-04T07:47:15;265.27;;;31.73;;
56893;SDS011;43392;50.078;13.704;2023-12-04T07:49:41;122.70;;;24.67;;
56893;SDS011;43392;50.078;13.704;2023-12-04T07:52:09;93.90;;;28.83;;
56893;SDS011;43392;50.078;13.704;2023-12-04T07:54:37;74.73;;;24.87;;
56893;SDS011;43392;50.078;13.704;2023-12-04T07:57:04;73.93;;;24.53;;
56893;SDS011;43392;50.078;13.704;2023-12-04T07:59:30;156.57;;;46.47;;
56893;SDS011;43392;50.078;13.704;2023-12-04T08:01:57;119.23;;;35.03;;
56893;SDS011;43392;50.078;13.704;2023-12-04T08:04:24;120.93;;;31.90;;
56893;SDS011;43392;50.078;13.704;2023-12-04T08:06:50;96.23;;;36.70;;
56893;SDS011;43392;50.078;13.704;2023-12-04T08:09:18;167.83;;;47.97;;
56893;SDS011;43392;50.078;13.704;2023-12-04T08:11:45;231.40;;;65.40;;
56893;SDS011;43392;50.078;13.704;2023-12-04T08:14:11;291.47;;;83.10;;
56893;SDS011;43392;50.078;13.704;2023-12-04T08:16:38;100.70;;;38.53;;
56893;SDS011;43392;50.078;13.704;2023-12-04T08:19:05;368.80;;;108.27;;
56893;SDS011;43392;50.078;13.704;2023-12-04T08:21:31;95.47;;;36.37;;
56893;SDS011;43392;50.078;13.704;2023-12-04T08:23:58;467.17;;;134.10;;
56893;SDS011;43392;50.078;13.704;2023-12-04T08:26:26;418.37;;;118.67;;
56893;SDS011;43392;50.078;13.704;2023-12-04T08:28:53;145.60;;;46.17;;
56893;SDS011;43392;50.078;13.704;2023-12-04T08:31:20;70.30;;;27.07;;
56893;SDS011;43392;50.078;13.704;2023-12-04T08:33:47;60.30;;;24.63;;
56893;SDS011;43392;50.078;13.704;2023-12-04T08:36:13;81.40;;;34.00;;
56893;SDS011;43392;50.078;13.704;2023-12-04T08:38:40;50.60;;;23.43;;
56893;SDS011;43392;50.078;13.704;2023-12-04T08:41:07;43.37;;;19.20;;
56893;SDS011;43392;50.078;13.704;2023-12-04T08:43:35;39.17;;;17.50;;
56893;SDS011;43392;50.078;13.704;2023-12-04T08:46:01;40.83;;;17.53;;
56893;SDS011;43392;50.078;13.704;2023-12-04T08:48:28;47.70;;;20.07;;
56893;SDS011;43392;50.078;13.704;2023-12-04T08:50:55;57.50;;;26.17;;
56893;SDS011;43392;50.078;13.704;2023-12-04T08:53:22;63.63;;;28.87;;
56893;SDS011;43392;50.078;13.704;2023-12-04T08:55:49;67.33;;;28.33;;
56893;SDS011;43392;50.078;13.704;2023-12-04T08:58:17;57.53;;;27.83;;
56893;SDS011;43392;50.078;13.704;2023-12-04T09:00:45;56.57;;;26.20;;
56893;SDS011;43392;50.078;13.704;2023-12-04T09:03:11;46.80;;;22.93;;
56893;SDS011;43392;50.078;13.704;2023-12-04T09:05:38;53.27;;;27.37;;
56893;SDS011;43392;50.078;13.704;2023-12-04T09:08:05;71.73;;;31.53;;
56893;SDS011;43392;50.078;13.704;2023-12-04T09:10:32;62.63;;;28.37;;
56893;SDS011;43392;50.078;13.704;2023-12-04T09:12:58;52.47;;;26.30;;
56893;SDS011;43392;50.078;13.704;2023-12-04T09:15:25;46.00;;;21.47;;
56893;SDS011;43392;50.078;13.704;2023-12-04T09:17:53;40.87;;;17.77;;
56893;SDS011;43392;50.078;13.704;2023-12-04T09:20:20;38.87;;;17.37;;
56893;SDS011;43392;50.078;13.704;2023-12-04T09:22:46;35.67;;;17.13;;
56893;SDS011;43392;50.078;13.704;2023-12-04T09:25:13;32.17;;;15.40;;
56893;SDS011;43392;50.078;13.704;2023-12-04T09:27:40;32.83;;;15.73;;
56893;SDS011;43392;50.078;13.704;2023-12-04T09:30:07;32.70;;;15.80;;
56893;SDS011;43392;50.078;13.704;2023-12-04T09:32:34;29.60;;;15.23;;
56893;SDS011;43392;50.078;13.704;2023-12-04T09:35:02;31.90;;;15.23;;
56893;SDS011;43392;50.078;13.704;2023-12-04T09:37:29;29.57;;;13.77;;
56893;SDS011;43392;50.078;13.704;2023-12-04T09:39:56;35.17;;;15.90;;
56893;SDS011;43392;50.078;13.704;2023-12-04T09:42:22;33.07;;;15.00;;
56893;SDS011;43392;50.078;13.704;2023-12-04T09:44:49;37.43;;;18.90;;
56893;SDS011;43392;50.078;13.704;2023-12-04T09:47:19;64.33;;;29.73;;
56893;SDS011;43392;50.078;13.704;2023-12-04T09:49:48;54.37;;;23.20;;
56893;SDS011;43392;50.078;13.704;2023-12-04T09:52:19;66.22;;;32.38;;
56893;SDS011;43392;50.078;13.704;2023-12-04T09:54:46;49.40;;;22.63;;
56893;SDS011;43392;50.078;13.704;2023-12-04T09:57:13;54.93;;;23.63;;
56893;SDS011;43392;50.078;13.704;2023-12-04T09:59:40;36.40;;;17.23;;
56893;SDS011;43392;50.078;13.704;2023-12-04T10:02:09;35.43;;;15.67;;
56893;SDS011;43392;50.078;13.704;2023-12-04T10:04:36;42.73;;;19.37;;
56893;SDS011;43392;50.078;13.704;2023-12-04T10:07:03;48.00;;;19.53;;
56893;SDS011;43392;50.078;13.704;2023-12-04T10:09:31;101.23;;;39.40;;
56893;SDS011;43392;50.078;13.704;2023-12-04T10:11:58;75.43;;;28.27;;
56893;SDS011;43392;50.078;13.704;2023-12-04T10:14:26;38.40;;;17.60;;
56893;SDS011;43392;50.078;13.704;2023-12-04T10:16:52;36.37;;;16.93;;
56893;SDS011;43392;50.078;13.704;2023-12-04T10:19:20;71.17;;;28.57;;
56893;SDS011;43392;50.078;13.704;2023-12-04T10:21:50;61.50;;;27.43;;
56893;SDS011;43392;50.078;13.704;2023-12-04T10:24:28;61.67;;;26.47;;
56893;SDS011;43392;50.078;13.704;2023-12-04T10:26:58;56.80;;;27.23;;
56893;SDS011;43392;50.078;13.704;2023-12-04T10:29:26;43.67;;;20.10;;
56893;SDS011;43392;50.078;13.704;2023-12-04T10:31:55;42.20;;;20.83;;
56893;SDS011;43392;50.078;13.704;2023-12-04T10:34:21;40.30;;;19.40;;
56893;SDS011;43392;50.078;13.704;2023-12-04T10:36:51;37.97;;;18.93;;
56893;SDS011;43392;50.078;13.704;2023-12-04T10:39:17;38.90;;;16.57;;
56893;SDS011;43392;50.078;13.704;2023-12-04T10:41:44;36.93;;;16.77;;
56893;SDS011;43392;50.078;13.704;2023-12-04T10:44:16;35.47;;;16.47;;
56893;SDS011;43392;50.078;13.704;2023-12-04T10:46:43;37.43;;;17.97;;
56893;SDS011;43392;50.078;13.704;2023-12-04T10:49:13;38.30;;;16.60;;
56893;SDS011;43392;50.078;13.704;2023-12-04T10:51:41;37.43;;;18.20;;
56893;SDS011;43392;50.078;13.704;2023-12-04T10:54:09;39.40;;;18.33;;
56893;SDS011;43392;50.078;13.704;2023-12-04T10:56:38;42.90;;;18.57;;
56893;SDS011;43392;50.078;13.704;2023-12-04T10:59:10;39.07;;;17.63;;
56893;SDS011;43392;50.078;13.704;2023-12-04T11:01:39;41.73;;;18.00;;
56893;SDS011;43392;50.078;13.704;2023-12-04T11:04:08;36.97;;;16.50;;
56893;SDS011;43392;50.078;13.704;2023-12-04T11:06:42;37.10;;;17.93;;
56893;SDS011;43392;50.078;13.704;2023-12-04T11:11:40;40.60;;;17.70;;
56893;SDS011;43392;50.078;13.704;2023-12-04T11:14:12;42.67;;;18.93;;
56893;SDS011;43392;50.078;13.704;2023-12-04T11:19:14;37.83;;;17.73;;
56893;SDS011;43392;50.078;13.704;2023-12-04T11:21:46;37.47;;;18.23;;
56893;SDS011;43392;50.078;13.704;2023-12-04T11:24:16;38.43;;;17.70;;
56893;SDS011;43392;50.078;13.704;2023-12-04T11:26:44;37.93;;;17.23;;
56893;SDS011;43392;50.078;13.704;2023-12-04T11:29:11;40.33;;;18.70;;
56893;SDS011;43392;50.078;13.704;2023-12-04T11:31:39;47.47;;;20.67;;
56893;SDS011;43392;50.078;13.704;2023-12-04T11:34:07;58.87;;;24.47;;
56893;SDS011;43392;50.078;13.704;2023-12-04T11:36:36;59.45;;;23.65;;
56893;SDS011;43392;50.078;13.704;2023-12-04T11:39:03;53.13;;;23.90;;
56893;SDS011;43392;50.078;13.704;2023-12-04T11:41:35;48.47;;;19.97;;
56893;SDS011;43392;50.078;13.704;2023-12-04T11:44:02;45.73;;;21.83;;
56893;SDS011;43392;50.078;13.704;2023-12-04T11:46:29;46.20;;;19.67;;
56893;SDS011;43392;50.078;13.704;2023-12-04T11:48:57;48.33;;;20.40;;
56893;SDS011;43392;50.078;13.704;2023-12-04T11:51:55;42.57;;;18.90;;
56893;SDS011;43392;50.078;13.704;2023-12-04T11:54:22;44.93;;;21.37;;
56893;SDS011;43392;50.078;13.704;2023-12-04T11:56:57;44.37;;;20.50;;
56893;SDS011;43392;50.078;13.704;2023-12-04T11:59:25;43.80;;;19.50;;
56893;SDS011;43392;50.078;13.704;2023-12-04T12:01:54;49.60;;;19.13;;
56893;SDS011;43392;50.078;13.704;2023-12-04T12:04:21;44.07;;;18.77;;
56893;SDS011;43392;50.078;13.704;2023-12-04T12:06:50;43.53;;;18.77;;
56893;SDS011;43392;50.078;13.704;2023-12-04T12:09:17;47.03;;;23.13;;
56893;SDS011;43392;50.078;13.704;2023-12-04T12:11:44;49.93;;;21.53;;
56893;SDS011;43392;50.078;13.704;2023-12-04T12:14:11;57.30;;;22.27;;
56893;SDS011;43392;50.078;13.704;2023-12-04T12:16:38;50.17;;;22.47;;
56893;SDS011;43392;50.078;13.704;2023-12-04T12:19:05;46.13;;;21.37;;
56893;SDS011;43392;50.078;13.704;2023-12-04T12:21:32;46.33;;;21.10;;
56893;SDS011;43392;50.078;13.704;2023-12-04T12:24:00;43.93;;;20.03;;
56893;SDS011;43392;50.078;13.704;2023-12-04T12:26:26;45.87;;;20.13;;
56893;SDS011;43392;50.078;13.704;2023-12-04T12:28:54;40.50;;;19.03;;
56893;SDS011;43392;50.078;13.704;2023-12-04T12:31:21;48.43;;;20.70;;
56893;SDS011;43392;50.078;13.704;2023-12-04T12:33:47;45.70;;;20.83;;
56893;SDS011;43392;50.078;13.704;2023-12-04T12:36:14;48.50;;;21.43;;
56893;SDS011;43392;50.078;13.704;2023-12-04T12:38:43;49.77;;;22.33;;
56893;SDS011;43392;50.078;13.704;2023-12-04T12:41:16;53.60;;;20.33;;
56893;SDS011;43392;50.078;13.704;2023-12-04T12:43:42;55.30;;;21.43;;
56893;SDS011;43392;50.078;13.704;2023-12-04T12:46:09;46.70;;;21.07;;
56893;SDS011;43392;50.078;13.704;2023-12-04T12:48:36;49.20;;;21.53;;
56893;SDS011;43392;50.078;13.704;2023-12-04T12:51:03;52.00;;;22.63;;
56893;SDS011;43392;50.078;13.704;2023-12-04T12:53:31;55.10;;;22.77;;
56893;SDS011;43392;50.078;13.704;2023-12-04T12:55:59;55.93;;;23.37;;
56893;SDS011;43392;50.078;13.704;2023-12-04T12:58:27;62.53;;;24.03;;
56893;SDS011;43392;50.078;13.704;2023-12-04T13:00:54;63.43;;;27.90;;
56893;SDS011;43392;50.078;13.704;2023-12-04T13:03:21;52.23;;;23.23;;
56893;SDS011;43392;50.078;13.704;2023-12-04T13:05:48;54.73;;;24.60;;
56893;SDS011;43392;50.078;13.704;2023-12-04T13:08:14;53.53;;;23.20;;
56893;SDS011;43392;50.078;13.704;2023-12-04T13:10:41;57.70;;;23.37;;
56893;SDS011;43392;50.078;13.704;2023-12-04T13:13:09;59.40;;;22.80;;
56893;SDS011;43392;50.078;13.704;2023-12-04T13:15:37;51.40;;;23.43;;
56893;SDS011;43392;50.078;13.704;2023-12-04T13:18:04;50.80;;;22.17;;
56893;SDS011;43392;50.078;13.704;2023-12-04T13:20:31;53.23;;;21.77;;
56893;SDS011;43392;50.078;13.704;2023-12-04T13:22:58;54.10;;;23.03;;
56893;SDS011;43392;50.078;13.704;2023-12-04T13:25:25;46.77;;;20.77;;
56893;SDS011;43392;50.078;13.704;2023-12-04T13:27:52;53.63;;;21.70;;
56893;SDS011;43392;50.078;13.704;2023-12-04T13:30:19;55.27;;;21.60;;
56893;SDS011;43392;50.078;13.704;2023-12-04T13:32:47;50.63;;;21.23;;
56893;SDS011;43392;50.078;13.704;2023-12-04T13:35:15;65.60;;;24.23;;
56893;SDS011;43392;50.078;13.704;2023-12-04T13:37:42;49.40;;;21.93;;
56893;SDS011;43392;50.078;13.704;2023-12-04T13:40:08;54.40;;;22.40;;
56893;SDS011;43392;50.078;13.704;2023-12-04T13:42:41;62.20;;;26.40;;
56893;SDS011;43392;50.078;13.704;2023-12-04T13:45:25;64.53;;;26.77;;
56893;SDS011;43392;50.078;13.704;2023-12-04T13:47:53;71.57;;;31.73;;
56893;SDS011;43392;50.078;13.704;2023-12-04T13:50:19;68.40;;;32.47;;
56893;SDS011;43392;50.078;13.704;2023-12-04T13:52:46;58.40;;;25.23;;
56893;SDS011;43392;50.078;13.704;2023-12-04T13:55:20;64.57;;;25.13;;
56893;SDS011;43392;50.078;13.704;2023-12-04T13:58:01;56.90;;;25.77;;
56893;SDS011;43392;50.078;13.704;2023-12-04T14:00:35;62.60;;;27.17;;
56893;SDS011;43392;50.078;13.704;2023-12-04T14:03:03;66.00;;;27.97;;
56893;SDS011;43392;50.078;13.704;2023-12-04T14:05:30;59.80;;;27.20;;
56893;SDS011;43392;50.078;13.704;2023-12-04T14:07:57;62.23;;;27.60;;
56893;SDS011;43392;50.078;13.704;2023-12-04T14:10:25;59.67;;;26.23;;
56893;SDS011;43392;50.078;13.704;2023-12-04T14:12:52;76.93;;;33.03;;
56893;SDS011;43392;50.078;13.704;2023-12-04T14:15:19;67.33;;;29.23;;